Time;durP1;ratioP1;P1;durP2;ratioP2;P2;SDS_P1;SDS_P2;PMS_P1;PMS_P2;Temp;Humidity;BMP_temperature;BMP_pressure;BME280_temperature;BME280_humidity;BME280_pressure;Samples;Min_cycle;Max_cycle;Signal;HPM_P1;HPM_P2
2023/07/24 00:00:28;;;;;;;3.08;2.53;;;18.90;99.90;;;;;;4177329;28;20436;-62
2023/07/24 00:02:29;;;;;;;3.05;2.75;;;18.90;99.90;;;;;;4176161;28;20037;-63
2023/07/24 00:04:31;;;;;;;5.90;3.10;;;18.90;99.90;;;;;;4176345;28;20065;-64
2023/07/24 00:06:32;;;;;;;4.80;3.25;;;18.90;99.90;;;;;;4176587;28;20070;-62
2023/07/24 00:08:34;;;;;;;4.63;2.95;;;18.80;99.90;;;;;;4176319;28;20029;-62
2023/07/24 00:10:35;;;;;;;3.55;2.90;;;18.80;99.90;;;;;;4177073;28;20250;-60
2023/07/24 00:12:36;;;;;;;3.28;2.75;;;18.70;99.90;;;;;;4175710;28;20041;-62
2023/07/24 00:14:37;;;;;;;3.85;2.70;;;18.70;99.90;;;;;;4177134;28;20033;-63
2023/07/24 00:16:38;;;;;;;4.10;2.80;;;18.80;99.90;;;;;;4176263;28;20370;-64
2023/07/24 00:18:40;;;;;;;3.40;2.85;;;18.80;99.90;;;;;;4177143;28;20502;-62
2023/07/24 00:20:42;;;;;;;3.92;2.92;;;18.80;99.90;;;;;;4176019;28;20037;-63
2023/07/24 00:22:43;;;;;;;3.47;2.42;;;18.90;99.90;;;;;;4176851;28;20211;-64
2023/07/24 00:24:44;;;;;;;17.55;4.55;;;18.90;99.90;;;;;;4175869;28;20090;-63
2023/07/24 00:26:45;;;;;;;4.90;2.47;;;18.90;99.90;;;;;;4176943;28;20087;-63
2023/07/24 00:28:46;;;;;;;3.20;2.75;;;18.90;99.90;;;;;;4175659;28;20025;-62
2023/07/24 00:30:47;;;;;;;4.05;3.17;;;18.90;99.90;;;;;;4178053;28;20033;-64
2023/07/24 00:32:48;;;;;;;3.55;2.53;;;18.90;99.90;;;;;;4179611;28;20029;-63
2023/07/24 00:34:49;;;;;;;3.42;2.80;;;18.90;99.90;;;;;;4179264;28;20464;-63
2023/07/24 00:36:50;;;;;;;6.07;2.78;;;18.80;99.90;;;;;;4161766;28;20088;-62
2023/07/24 00:38:51;;;;;;;13.57;3.03;;;18.80;99.90;;;;;;4178686;28;20106;-62
2023/07/24 00:40:54;;;;;;;3.63;2.88;;;18.70;99.90;;;;;;4180463;28;20091;-63
2023/07/24 00:42:55;;;;;;;3.10;2.75;;;18.70;99.90;;;;;;4179128;28;20036;-62
2023/07/24 00:44:56;;;;;;;3.20;2.67;;;18.70;99.90;;;;;;4180053;28;20025;-61
2023/07/24 00:46:57;;;;;;;3.42;2.55;;;18.70;99.90;;;;;;4179247;28;20127;-62
2023/07/24 00:49:00;;;;;;;3.90;2.80;;;18.70;99.90;;;;;;4180144;28;20037;-64
2023/07/24 00:51:02;;;;;;;3.75;2.88;;;18.80;99.90;;;;;;4178371;28;20028;-63
2023/07/24 00:53:03;;;;;;;4.53;2.67;;;18.80;99.90;;;;;;4178686;28;20044;-62
2023/07/24 00:55:06;;;;;;;3.30;2.95;;;18.80;99.90;;;;;;4178634;28;20099;-63
2023/07/24 00:57:08;;;;;;;8.98;3.25;;;18.70;99.90;;;;;;4179496;28;20037;-62
2023/07/24 00:59:09;;;;;;;6.47;3.15;;;18.70;99.90;;;;;;4179137;28;20094;-63
2023/07/24 01:01:10;;;;;;;4.55;2.83;;;18.50;99.90;;;;;;4180381;28;20033;-62
2023/07/24 01:03:12;;;;;;;4.60;3.20;;;18.50;99.90;;;;;;4179013;28;20113;-62
2023/07/24 01:05:16;;;;;;;5.15;2.78;;;18.40;99.90;;;;;;4161453;28;20033;-62
2023/07/24 01:07:18;;;;;;;4.05;2.97;;;18.40;99.90;;;;;;4178738;28;20088;-68
2023/07/24 01:09:19;;;;;;;6.20;2.80;;;18.30;99.90;;;;;;4179324;28;20426;-65
2023/07/24 01:11:32;;;;;;;11.95;3.78;;;18.20;99.90;;;;;;4179144;28;20049;-65
2023/07/24 01:13:39;;;;;;;6.18;3.05;;;18.10;99.90;;;;;;4178922;28;20037;-64
2023/07/24 01:16:02;;;;;;;8.88;3.30;;;18.10;99.90;;;;;;4160855;28;20079;-64
2023/07/24 01:18:09;;;;;;;7.00;3.85;;;18.00;99.90;;;;;;4179255;28;20037;-64
2023/07/24 01:20:12;;;;;;;5.25;3.33;;;17.90;99.90;;;;;;4179254;28;20378;-64
2023/07/24 01:22:29;;;;;;;3.33;3.03;;;17.90;99.90;;;;;;4178939;28;20048;-64
2023/07/24 01:24:45;;;;;;;8.35;2.78;;;17.90;99.90;;;;;;4161126;28;20065;-64
2023/07/24 01:26:46;;;;;;;4.88;3.13;;;18.00;99.90;;;;;;4179399;28;20118;-64
2023/07/24 01:28:47;;;;;;;6.65;2.92;;;18.00;99.90;;;;;;4179109;28;20029;-65
2023/07/24 01:30:48;;;;;;;7.35;3.00;;;18.00;99.90;;;;;;4179036;28;20443;-63
2023/07/24 01:32:49;;;;;;;3.80;2.97;;;18.10;99.90;;;;;;4179459;28;20377;-61
2023/07/24 01:34:52;;;;;;;4.88;3.10;;;18.00;99.90;;;;;;4160225;28;20136;-64
2023/07/24 01:36:53;;;;;;;4.68;3.13;;;18.00;99.90;;;;;;4179564;28;20045;-62
2023/07/24 01:38:55;;;;;;;5.15;3.20;;;18.10;99.90;;;;;;4177942;28;20095;-64
2023/07/24 01:40:56;;;;;;;3.58;2.75;;;18.10;99.90;;;;;;4161508;28;20041;-64
2023/07/24 01:42:59;;;;;;;4.10;3.03;;;18.10;99.90;;;;;;4176917;28;20045;-64
2023/07/24 01:45:01;;;;;;;5.25;3.58;;;18.10;99.90;;;;;;4179503;28;20094;-65
2023/07/24 01:47:03;;;;;;;6.03;3.42;;;17.90;99.90;;;;;;4178128;28;20025;-64
2023/07/24 01:49:04;;;;;;;7.05;4.07;;;17.70;99.90;;;;;;4179415;28;20403;-64
2023/07/24 01:51:05;;;;;;;4.43;3.03;;;17.50;99.90;;;;;;4178052;28;20090;-65
2023/07/24 01:53:06;;;;;;;3.28;2.97;;;17.40;99.90;;;;;;4179351;28;20033;-63
2023/07/24 01:55:09;;;;;;;5.05;3.10;;;17.40;99.90;;;;;;4177113;28;20448;-64
2023/07/24 01:57:10;;;;;;;5.43;2.90;;;17.40;99.90;;;;;;4177913;28;20017;-64
2023/07/24 01:59:11;;;;;;;4.15;2.97;;;17.40;99.90;;;;;;4178315;28;20888;-63
2023/07/24 02:01:12;;;;;;;3.50;3.08;;;17.40;99.90;;;;;;4178654;28;20041;-63
2023/07/24 02:03:13;;;;;;;4.32;3.03;;;17.30;99.90;;;;;;4178905;28;20094;-63
2023/07/24 02:05:14;;;;;;;3.88;3.42;;;17.20;99.90;;;;;;4177727;28;20106;-64
2023/07/24 02:07:15;;;;;;;3.55;2.97;;;17.20;99.90;;;;;;4178251;28;20037;-65
2023/07/24 02:09:18;;;;;;;7.63;3.47;;;17.10;99.90;;;;;;4177911;28;20524;-64
2023/07/24 02:11:19;;;;;;;6.63;3.03;;;17.00;99.90;;;;;;4179488;28;20448;-63
2023/07/24 02:13:21;;;;;;;5.68;3.00;;;16.80;99.90;;;;;;4178032;28;20087;-63
2023/07/24 02:15:22;;;;;;;5.00;3.65;;;16.70;99.90;;;;;;4160908;28;20025;-65
2023/07/24 02:17:23;;;;;;;5.20;3.17;;;16.60;99.90;;;;;;4177837;28;20025;-64
2023/07/24 02:19:24;;;;;;;4.75;3.88;;;16.50;99.90;;;;;;4177641;28;20053;-64
2023/07/24 02:21:25;;;;;;;5.13;3.75;;;16.40;99.90;;;;;;4177626;28;20481;-65
2023/07/24 02:23:26;;;;;;;4.60;3.90;;;16.30;99.90;;;;;;4178360;28;20087;-63
2023/07/24 02:25:27;;;;;;;5.53;4.28;;;16.20;99.90;;;;;;4177861;28;20033;-64
2023/07/24 02:27:31;;;;;;;5.45;4.40;;;16.20;99.90;;;;;;4178392;28;20037;-65
2023/07/24 02:29:32;;;;;;;4.85;4.13;;;16.10;99.90;;;;;;4177741;28;20083;-64
2023/07/24 02:31:34;;;;;;;9.77;4.70;;;16.10;99.90;;;;;;4178183;28;20045;-65
2023/07/24 02:33:35;;;;;;;6.13;4.18;;;16.20;99.90;;;;;;4178285;28;20135;-64
2023/07/24 02:35:41;;;;;;;13.63;4.25;;;16.20;99.90;;;;;;4177542;28;20033;-64
2023/07/24 02:37:42;;;;;;;7.65;4.43;;;16.20;99.90;;;;;;4160693;28;20071;-64
2023/07/24 02:39:43;;;;;;;4.93;4.25;;;16.20;99.90;;;;;;4176804;28;20107;-64
2023/07/24 02:41:45;;;;;;;10.75;4.93;;;16.10;99.90;;;;;;4178769;28;20489;-64
2023/07/24 02:43:46;;;;;;;19.92;13.20;;;16.10;99.90;;;;;;4177205;28;20025;-66
2023/07/24 02:45:47;;;;;;;8.50;5.57;;;16.00;99.90;;;;;;4177823;28;20041;-65
2023/07/24 02:47:48;;;;;;;8.50;5.30;;;15.90;99.90;;;;;;4177231;28;20414;-64
2023/07/24 02:49:49;;;;;;;6.88;5.43;;;15.80;99.90;;;;;;4177715;28;20033;-63
2023/07/24 02:51:50;;;;;;;7.70;5.15;;;15.70;99.90;;;;;;4176478;28;20028;-63
2023/07/24 02:53:54;;;;;;;8.00;5.13;;;15.70;99.90;;;;;;4160157;28;20037;-63
2023/07/24 02:55:55;;;;;;;9.63;5.32;;;15.70;99.90;;;;;;4177147;28;20432;-65
2023/07/24 02:57:56;;;;;;;8.40;5.10;;;15.70;99.90;;;;;;4177359;28;20419;-63
2023/07/24 02:59:57;;;;;;;6.68;4.47;;;15.70;99.90;;;;;;4176414;28;20087;-64
2023/07/24 03:01:59;;;;;;;6.07;4.50;;;15.70;99.90;;;;;;4176428;28;20017;-65
2023/07/24 03:04:00;;;;;;;6.88;4.30;;;15.70;99.90;;;;;;4176244;28;20393;-64
2023/07/24 03:06:01;;;;;;;7.30;4.40;;;15.70;99.90;;;;;;4175595;28;20025;-64
2023/07/24 03:08:02;;;;;;;6.65;4.30;;;15.80;99.90;;;;;;4177361;28;20037;-65
2023/07/24 03:10:04;;;;;;;6.88;5.20;;;15.80;99.90;;;;;;4177345;28;20029;-63
2023/07/24 03:12:05;;;;;;;7.45;4.88;;;15.80;99.90;;;;;;4178019;28;20029;-64
2023/07/24 03:14:07;;;;;;;10.25;4.53;;;15.90;99.90;;;;;;4175449;28;20040;-65
2023/07/24 03:16:08;;;;;;;10.18;5.07;;;15.90;99.90;;;;;;4160023;28;20437;-64
2023/07/24 03:18:09;;;;;;;7.20;4.57;;;15.90;99.90;;;;;;4176012;28;20527;-65
2023/07/24 03:20:14;;;;;;;9.35;4.80;;;16.00;99.90;;;;;;4176912;28;20083;-68
2023/07/24 03:22:15;;;;;;;9.55;5.35;;;16.10;99.90;;;;;;4176831;28;20044;-65
2023/07/24 03:24:17;;;;;;;13.18;5.03;;;16.10;99.90;;;;;;4177201;28;20493;-65
2023/07/24 03:26:18;;;;;;;13.40;5.65;;;16.10;99.90;;;;;;4175631;28;20037;-64
2023/07/24 03:28:20;;;;;;;9.25;5.38;;;16.10;99.90;;;;;;4158495;28;20109;-66
2023/07/24 03:30:21;;;;;;;11.77;5.57;;;16.00;99.90;;;;;;4176888;28;20025;-64
2023/07/24 03:32:22;;;;;;;10.80;5.75;;;16.00;99.90;;;;;;4177480;28;20036;-63
2023/07/24 03:34:23;;;;;;;6.68;5.03;;;16.00;99.90;;;;;;4176837;28;20079;-66
2023/07/24 03:36:24;;;;;;;8.05;5.35;;;16.10;99.90;;;;;;4176200;28;20444;-68
2023/07/24 03:38:25;;;;;;;9.15;4.97;;;16.20;99.90;;;;;;4176515;28;20049;-66
2023/07/24 03:40:26;;;;;;;12.43;5.90;;;16.30;99.90;;;;;;4177043;28;20469;-67
2023/07/24 03:42:31;;;;;;;7.93;5.53;;;16.60;99.90;;;;;;4177726;28;20450;-63
2023/07/24 03:44:32;;;;;;;8.50;4.70;;;16.80;99.90;;;;;;4176151;28;20028;-68
2023/07/24 03:46:34;;;;;;;6.85;4.63;;;17.00;99.90;;;;;;4176778;28;20037;-67
2023/07/24 03:48:36;;;;;;;8.02;4.60;;;17.20;99.90;;;;;;4175955;28;20927;-65
2023/07/24 03:50:37;;;;;;;10.68;4.85;;;17.40;99.90;;;;;;4177727;28;20029;-69
2023/07/24 03:52:38;;;;;;;8.98;4.65;;;17.80;99.90;;;;;;4158062;28;20532;-66
2023/07/24 03:54:39;;;;;;;7.47;4.68;;;18.20;99.90;;;;;;4177427;28;20028;-68
2023/07/24 03:56:41;;;;;;;9.45;4.90;;;18.50;99.90;;;;;;4176275;28;20040;-63
2023/07/24 03:58:42;;;;;;;5.05;3.85;;;18.90;99.90;;;;;;4176629;28;20444;-62
2023/07/24 04:00:43;;;;;;;9.13;4.50;;;19.20;99.90;;;;;;4171573;28;20053;-63
2023/07/24 04:02:44;;;;;;;10.18;4.88;;;19.50;99.90;;;;;;4176336;28;20029;-63
2023/07/24 04:04:45;;;;;;;10.13;5.43;;;19.30;99.90;;;;;;4175811;28;20070;-61
2023/07/24 04:06:47;;;;;;;9.35;4.93;;;19.20;99.90;;;;;;4175223;28;20091;-63
2023/07/24 04:08:48;;;;;;;12.57;5.28;;;19.00;99.90;;;;;;4176676;28;20082;-61
2023/07/24 04:10:49;;;;;;;9.73;5.18;;;18.80;99.90;;;;;;4176590;28;20037;-66
2023/07/24 04:12:50;;;;;;;8.88;5.30;;;18.60;99.90;;;;;;4176281;28;20428;-63
2023/07/24 04:14:51;;;;;;;10.77;5.07;;;18.60;99.90;;;;;;4175687;28;20025;-62
2023/07/24 04:16:53;;;;;;;13.13;4.90;;;18.70;99.90;;;;;;4176434;28;20436;-63
2023/07/24 04:18:54;;;;;;;15.32;5.57;;;19.00;99.90;;;;;;4174243;28;20126;-63
2023/07/24 04:20:56;;;;;;;12.63;4.90;;;19.20;99.90;;;;;;4173773;28;20041;-62
2023/07/24 04:22:57;;;;;;;9.23;5.22;;;19.60;99.90;;;;;;4175922;28;20082;-62
2023/07/24 04:24:58;;;;;;;8.13;4.63;;;19.70;99.90;;;;;;4177133;28;20497;-62
2023/07/24 04:26:59;;;;;;;12.02;5.93;;;20.20;99.90;;;;;;4175756;28;20029;-62
2023/07/24 04:29:00;;;;;;;10.90;5.38;;;20.20;99.90;;;;;;4176428;28;20025;-62
2023/07/24 04:31:02;;;;;;;10.18;5.63;;;20.00;99.90;;;;;;4174990;28;20072;-65
2023/07/24 04:33:03;;;;;;;10.35;4.97;;;20.10;99.90;;;;;;4175492;28;20040;-73
2023/07/24 04:35:04;;;;;;;10.52;4.82;;;20.10;99.90;;;;;;4164051;28;20087;-62
2023/07/24 04:37:05;;;;;;;6.53;4.57;;;20.30;99.90;;;;;;4175786;28;20033;-63
2023/07/24 04:39:06;;;;;;;7.65;5.13;;;20.30;99.90;;;;;;4176160;28;20041;-62
2023/07/24 04:41:08;;;;;;;9.52;5.32;;;20.20;99.90;;;;;;4175886;28;20044;-68
2023/07/24 04:43:09;;;;;;;9.45;4.82;;;20.30;99.90;;;;;;4176325;28;20045;-72
2023/07/24 04:45:10;;;;;;;7.40;4.70;;;20.20;99.90;;;;;;4174932;28;20102;-64
2023/07/24 04:47:11;;;;;;;10.45;4.85;;;20.10;99.90;;;;;;4175169;28;20440;-62
2023/07/24 04:49:12;;;;;;;6.63;5.32;;;20.30;99.90;;;;;;4175496;28;20033;-63
2023/07/24 04:51:13;;;;;;;7.75;6.60;;;20.40;99.90;;;;;;4158902;28;20088;-62
2023/07/24 04:53:14;;;;;;;12.45;8.23;;;20.40;99.90;;;;;;4175199;28;20037;-62
2023/07/24 04:55:16;;;;;;;13.52;10.63;;;20.50;99.90;;;;;;4176477;28;20029;-64
2023/07/24 04:57:17;;;;;;;7.80;6.57;;;20.60;99.90;;;;;;4175816;28;20079;-62
2023/07/24 04:59:18;;;;;;;9.40;6.35;;;20.60;99.90;;;;;;4176892;28;20087;-64
2023/07/24 05:01:19;;;;;;;10.57;5.75;;;20.80;99.90;;;;;;4175898;28;20571;-63
2023/07/24 05:03:20;;;;;;;7.18;4.85;;;21.00;99.90;;;;;;4175814;28;20052;-63
2023/07/24 05:05:21;;;;;;;8.43;5.03;;;21.00;99.90;;;;;;4175058;28;20090;-63
2023/07/24 05:07:22;;;;;;;9.20;5.13;;;21.10;99.90;;;;;;4175388;28;20403;-62
2023/07/24 05:09:23;;;;;;;7.93;5.32;;;21.30;99.90;;;;;;4175466;28;20106;-67
2023/07/24 05:11:24;;;;;;;7.65;6.00;;;21.20;99.90;;;;;;4175883;28;20099;-61
2023/07/24 05:13:26;;;;;;;8.52;6.18;;;21.30;99.90;;;;;;4176499;28;20032;-69
2023/07/24 05:15:27;;;;;;;7.13;6.22;;;21.60;99.90;;;;;;4175431;28;20082;-66
2023/07/24 05:17:29;;;;;;;8.90;6.57;;;21.90;99.90;;;;;;4178808;28;20028;-62
2023/07/24 05:19:30;;;;;;;11.02;6.45;;;22.10;99.90;;;;;;4178250;28;20566;-68
2023/07/24 05:21:31;;;;;;;8.73;5.25;;;22.20;99.90;;;;;;4178072;28;20090;-64
2023/07/24 05:23:32;;;;;;;9.40;6.35;;;22.40;99.90;;;;;;4178204;28;20075;-60
2023/07/24 05:25:33;;;;;;;10.98;6.28;;;22.20;99.90;;;;;;4179209;28;20041;-61
2023/07/24 05:27:35;;;;;;;11.35;5.82;;;22.30;99.90;;;;;;4177549;28;20044;-62
2023/07/24 05:29:36;;;;;;;9.68;5.80;;;22.60;99.90;;;;;;4179438;28;20105;-61
2023/07/24 05:31:37;;;;;;;10.05;6.50;;;23.20;99.90;;;;;;4178058;28;20531;-61
2023/07/24 05:33:38;;;;;;;7.95;5.90;;;22.90;99.90;;;;;;4179051;28;20029;-65
2023/07/24 05:35:39;;;;;;;7.93;5.55;;;23.10;99.90;;;;;;4177557;28;20037;-61
2023/07/24 05:37:40;;;;;;;11.93;5.28;;;23.50;99.90;;;;;;4178790;28;20091;-62
2023/07/24 05:39:42;;;;;;;9.73;6.00;;;23.60;99.90;;;;;;4161015;28;20185;-64
2023/07/24 05:41:43;;;;;;;12.27;5.53;;;23.60;99.90;;;;;;4178909;28;20025;-62
2023/07/24 05:43:44;;;;;;;8.93;5.00;;;23.70;99.90;;;;;;4161255;28;20383;-61
2023/07/24 05:45:45;;;;;;;9.48;5.35;;;24.30;99.90;;;;;;4177366;28;20037;-61
2023/07/24 05:47:46;;;;;;;7.72;5.30;;;24.70;99.90;;;;;;4178247;28;20060;-63
2023/07/24 05:49:47;;;;;;;8.98;4.90;;;25.60;99.90;;;;;;4178040;28;20033;-62
2023/07/24 05:51:48;;;;;;;6.63;4.80;;;26.50;99.90;;;;;;4178938;28;20428;-61
2023/07/24 05:53:49;;;;;;;9.02;5.25;;;27.10;99.90;;;;;;4178146;28;20098;-62
2023/07/24 05:56:01;;;;;;;7.25;5.43;;;27.00;99.70;;;;;;4179015;28;20032;-62
2023/07/24 05:58:02;;;;;;;9.63;4.32;;;26.60;99.50;;;;;;4177790;28;20090;-62
2023/07/24 06:00:04;;;;;;;8.10;5.35;;;26.60;99.60;;;;;;4179105;28;20095;-66
2023/07/24 06:02:07;;;;;;;7.22;5.05;;;26.70;99.10;;;;;;4177948;28;20107;-63
2023/07/24 06:04:08;;;;;;;6.72;4.60;;;26.60;99.00;;;;;;4178475;28;20095;-62
2023/07/24 06:06:09;;;;;;;7.50;4.18;;;26.80;98.80;;;;;;4177552;28;20496;-62
2023/07/24 06:08:11;;;;;;;7.78;4.88;;;27.20;98.40;;;;;;4178689;28;20029;-62
2023/07/24 06:10:13;;;;;;;6.95;4.28;;;28.20;97.60;;;;;;4177945;28;20095;-67
2023/07/24 06:12:14;;;;;;;11.48;5.05;;;27.90;96.50;;;;;;4178668;28;20025;-63
2023/07/24 06:14:15;;;;;;;7.97;4.97;;;27.70;96.60;;;;;;4178500;28;20036;-63
2023/07/24 06:16:16;;;;;;;7.60;4.35;;;27.20;96.60;;;;;;4176995;28;20037;-64
2023/07/24 06:18:18;;;;;;;6.47;4.68;;;26.70;96.90;;;;;;4177465;28;20040;-63
2023/07/24 06:20:19;;;;;;;6.05;4.97;;;26.30;97.40;;;;;;4177415;28;20037;-61
2023/07/24 06:22:20;;;;;;;6.47;3.63;;;26.00;97.00;;;;;;4178438;28;20114;-63
2023/07/24 06:24:23;;;;;;;5.72;3.40;;;25.80;97.00;;;;;;4159084;28;20523;-61
2023/07/24 06:26:24;;;;;;;5.57;3.35;;;25.50;97.20;;;;;;4178489;28;20082;-61
2023/07/24 06:28:25;;;;;;;6.18;3.65;;;25.50;97.30;;;;;;4176804;28;20040;-60
2023/07/24 06:30:26;;;;;;;4.25;2.95;;;25.80;97.30;;;;;;4177826;28;20036;-62
2023/07/24 06:32:28;;;;;;;3.63;2.80;;;26.50;96.70;;;;;;4177056;28;20067;-61
2023/07/24 06:34:29;;;;;;;6.60;3.00;;;27.30;95.90;;;;;;4178374;28;20101;-62
2023/07/24 06:36:30;;;;;;;3.92;2.83;;;26.80;95.80;;;;;;4176083;28;20037;-61
2023/07/24 06:38:31;;;;;;;4.43;3.50;;;26.20;96.40;;;;;;4177751;28;20037;-61
2023/07/24 06:40:32;;;;;;;4.35;3.50;;;25.50;97.20;;;;;;4176941;28;20045;-62
2023/07/24 06:42:34;;;;;;;5.05;2.95;;;25.30;97.60;;;;;;4176636;28;20033;-61
2023/07/24 06:44:35;;;;;;;4.78;3.50;;;25.00;98.10;;;;;;4178033;28;20029;-62
2023/07/24 06:46:36;;;;;;;5.05;3.42;;;24.70;98.80;;;;;;4176367;28;20083;-61
2023/07/24 06:48:37;;;;;;;4.75;3.55;;;24.70;99.10;;;;;;4177977;28;20028;-61
2023/07/24 06:50:38;;;;;;;5.55;3.72;;;24.50;99.40;;;;;;4176773;28;20033;-63
2023/07/24 06:52:39;;;;;;;7.13;3.47;;;24.50;99.70;;;;;;4178027;28;20037;-61
2023/07/24 06:54:40;;;;;;;5.65;4.07;;;24.40;99.90;;;;;;4176965;28;20036;-61
2023/07/24 06:56:41;;;;;;;4.28;3.70;;;24.30;99.90;;;;;;4160191;28;20116;-63
2023/07/24 06:58:42;;;;;;;7.47;3.63;;;24.40;99.90;;;;;;4176863;28;20029;-65
2023/07/24 07:00:43;;;;;;;8.23;3.67;;;24.80;99.90;;;;;;4159572;28;20046;-61
2023/07/24 07:02:45;;;;;;;5.18;4.03;;;24.80;99.90;;;;;;4176418;28;20033;-62
2023/07/24 07:04:46;;;;;;;7.22;4.25;;;24.90;99.90;;;;;;4177644;28;20102;-63
2023/07/24 07:06:47;;;;;;;5.88;3.92;;;24.70;99.90;;;;;;4176562;28;20013;-61
2023/07/24 07:08:48;;;;;;;6.22;4.03;;;24.60;99.90;;;;;;4177235;28;20033;-61
2023/07/24 07:11:03;;;;;;;4.18;3.35;;;24.70;99.90;;;;;;4176519;28;20095;-61
2023/07/24 07:13:04;;;;;;;8.75;3.75;;;24.90;99.90;;;;;;4177339;28;20400;-62
2023/07/24 07:15:06;;;;;;;4.43;3.38;;;24.80;99.90;;;;;;4177260;28;20106;-61
2023/07/24 07:17:07;;;;;;;7.07;4.07;;;24.80;99.90;;;;;;4176310;28;20442;-61
2023/07/24 07:19:09;;;;;;;4.97;3.80;;;24.90;99.90;;;;;;4177395;28;20032;-61
2023/07/24 07:21:12;;;;;;;7.07;3.88;;;25.10;99.90;;;;;;4175469;28;20049;-62
2023/07/24 07:23:13;;;;;;;5.30;3.42;;;25.20;99.90;;;;;;4176639;28;20033;-65
2023/07/24 07:25:14;;;;;;;5.10;3.28;;;25.20;99.90;;;;;;4176524;28;20029;-64
2023/07/24 07:27:17;;;;;;;4.30;3.22;;;25.20;99.90;;;;;;4177633;28;20029;-61
2023/07/24 07:29:18;;;;;;;4.47;3.67;;;25.30;99.90;;;;;;4176327;28;20067;-61
2023/07/24 07:31:19;;;;;;;3.92;3.00;;;25.40;99.90;;;;;;4177409;28;20025;-60
2023/07/24 07:33:24;;;;;;;6.03;3.75;;;25.60;99.90;;;;;;4176433;28;20546;-61
2023/07/24 07:35:25;;;;;;;5.70;3.30;;;25.80;99.90;;;;;;4176761;28;20706;-62
2023/07/24 07:37:26;;;;;;;5.65;3.30;;;25.70;99.90;;;;;;4176286;28;20118;-61
2023/07/24 07:39:28;;;;;;;5.95;3.42;;;25.50;99.90;;;;;;4176605;28;20175;-63
2023/07/24 07:41:29;;;;;;;5.30;2.75;;;25.50;99.90;;;;;;4176840;28;20037;-62
2023/07/24 07:43:34;;;;;;;5.68;3.53;;;25.60;99.90;;;;;;4176961;28;20056;-61
2023/07/24 07:45:36;;;;;;;5.53;3.03;;;25.80;99.90;;;;;;4176101;28;20463;-61
2023/07/24 07:47:37;;;;;;;4.53;3.10;;;25.90;99.90;;;;;;4176408;28;20033;-63
2023/07/24 07:49:40;;;;;;;4.15;2.88;;;26.10;99.90;;;;;;4176641;28;20102;-67
2023/07/24 07:51:41;;;;;;;5.63;2.90;;;26.00;99.90;;;;;;4176305;28;20032;-69
2023/07/24 07:53:42;;;;;;;5.00;3.00;;;26.00;99.90;;;;;;4176858;28;20493;-65
2023/07/24 07:55:43;;;;;;;6.40;3.00;;;25.80;99.90;;;;;;4175938;28;20025;-68
2023/07/24 07:57:44;;;;;;;7.47;3.47;;;25.80;99.90;;;;;;4177033;28;20101;-72
2023/07/24 07:59:45;;;;;;;4.55;3.10;;;25.70;99.90;;;;;;4176349;28;20115;-67
2023/07/24 08:01:47;;;;;;;4.38;3.08;;;25.80;99.90;;;;;;4176986;28;20025;-61
2023/07/24 08:03:48;;;;;;;4.45;3.33;;;25.80;99.90;;;;;;4157738;28;20402;-65
2023/07/24 08:05:49;;;;;;;3.60;2.95;;;25.60;99.90;;;;;;4177072;28;21036;-63
2023/07/24 08:07:50;;;;;;;5.07;3.10;;;25.70;99.90;;;;;;4176002;28;20114;-61
2023/07/24 08:09:51;;;;;;;4.43;2.88;;;25.90;99.90;;;;;;4177227;28;20033;-62
2023/07/24 08:11:52;;;;;;;4.57;2.83;;;26.20;99.90;;;;;;4176320;28;20083;-70
2023/07/24 08:13:53;;;;;;;2.97;2.33;;;26.00;99.90;;;;;;4176786;28;20024;-62
2023/07/24 08:15:54;;;;;;;3.70;2.78;;;26.00;99.90;;;;;;4176070;28;20104;-62
2023/07/24 08:17:55;;;;;;;3.33;2.90;;;26.00;99.90;;;;;;4161029;28;20029;-61
2023/07/24 08:19:56;;;;;;;4.00;2.70;;;26.00;99.90;;;;;;4160016;28;20049;-61
2023/07/24 08:21:58;;;;;;;6.32;3.33;;;26.30;99.90;;;;;;4158860;28;20045;-60
2023/07/24 08:23:59;;;;;;;6.18;3.00;;;26.50;99.90;;;;;;4160547;28;20071;-60
2023/07/24 08:26:02;;;;;;;4.35;2.60;;;26.60;99.90;;;;;;4159109;28;20046;-61
2023/07/24 08:28:04;;;;;;;4.88;2.92;;;26.70;99.90;;;;;;4159685;28;20045;-60
2023/07/24 08:30:06;;;;;;;3.15;2.85;;;26.70;99.90;;;;;;4159441;28;20029;-61
2023/07/24 08:32:07;;;;;;;5.30;2.70;;;26.80;99.90;;;;;;4160291;28;20080;-60
2023/07/24 08:34:09;;;;;;;4.78;2.78;;;26.70;99.90;;;;;;4158667;28;20060;-59
2023/07/24 08:36:11;;;;;;;9.50;3.15;;;26.90;99.90;;;;;;4159775;28;20538;-61
2023/07/24 08:38:12;;;;;;;6.57;2.60;;;27.10;99.90;;;;;;4159121;28;20094;-62
2023/07/24 08:40:15;;;;;;;3.05;2.78;;;27.20;99.90;;;;;;4159457;28;20104;-63
2023/07/24 08:42:16;;;;;;;3.58;2.30;;;27.30;99.40;;;;;;4159635;28;20424;-67
2023/07/24 08:44:18;;;;;;;8.93;2.20;;;27.60;99.40;;;;;;4160369;28;20319;-61
2023/07/24 08:46:20;;;;;;;2.92;2.33;;;28.00;99.00;;;;;;4158890;28;20107;-62
2023/07/24 08:48:22;;;;;;;6.22;2.70;;;27.90;98.70;;;;;;4160120;28;20025;-61
2023/07/24 08:50:24;;;;;;;2.63;1.90;;;27.90;98.50;;;;;;4158688;28;20033;-60
2023/07/24 08:52:25;;;;;;;4.65;2.10;;;28.00;97.00;;;;;;4161550;28;20536;-62
2023/07/24 08:54:26;;;;;;;3.17;1.92;;;28.30;95.90;;;;;;4162353;28;20087;-60
2023/07/24 08:56:27;;;;;;;5.57;3.13;;;28.50;95.20;;;;;;4161959;28;20041;-59
2023/07/24 08:58:29;;;;;;;12.60;2.92;;;28.60;95.00;;;;;;4163298;28;20030;-61
2023/07/24 09:00:30;;;;;;;9.48;3.63;;;28.80;94.60;;;;;;4162322;28;20481;-60
2023/07/24 09:02:33;;;;;;;3.67;2.17;;;29.00;94.40;;;;;;4163345;28;20091;-61
2023/07/24 09:04:36;;;;;;;3.67;2.05;;;29.00;94.10;;;;;;4161879;28;20478;-59
2023/07/24 09:06:37;;;;;;;4.35;1.80;;;29.10;93.30;;;;;;4162151;28;20029;-61
2023/07/24 09:08:40;;;;;;;6.18;2.17;;;29.00;92.50;;;;;;4162036;28;20095;-60
2023/07/24 09:10:41;;;;;;;4.40;2.05;;;29.00;91.80;;;;;;4162668;28;20067;-61
2023/07/24 09:12:43;;;;;;;9.63;3.50;;;28.90;91.40;;;;;;4161913;28;20080;-61
2023/07/24 09:14:45;;;;;;;4.45;2.58;;;29.10;91.50;;;;;;4163123;28;20037;-62
2023/07/24 09:16:46;;;;;;;3.67;2.13;;;29.30;91.10;;;;;;4143628;28;20034;-61
2023/07/24 09:18:47;;;;;;;2.38;1.90;;;29.60;90.50;;;;;;4162043;28;20107;-60
2023/07/24 09:20:49;;;;;;;4.18;2.10;;;29.60;90.00;;;;;;4161151;28;20110;-61
2023/07/24 09:22:51;;;;;;;4.85;2.20;;;29.50;89.50;;;;;;4161884;28;20049;-58
2023/07/24 09:24:54;;;;;;;9.15;5.03;;;29.40;90.00;;;;;;4162166;28;20121;-62
2023/07/24 09:26:55;;;;;;;3.58;1.70;;;29.40;90.20;;;;;;4162471;28;20030;-61
2023/07/24 09:28:56;;;;;;;4.28;2.67;;;29.60;90.20;;;;;;4162312;28;20037;-60
2023/07/24 09:31:00;;;;;;;4.20;2.25;;;29.50;90.00;;;;;;4162002;28;20022;-60
2023/07/24 09:33:01;;;;;;;3.22;1.92;;;29.60;90.10;;;;;;4162832;28;20026;-61
2023/07/24 09:35:03;;;;;;;2.28;1.95;;;29.50;89.00;;;;;;4161540;28;20025;-62
2023/07/24 09:37:04;;;;;;;1.88;1.52;;;29.40;88.60;;;;;;4162739;28;20037;-62
2023/07/24 09:39:06;;;;;;;3.33;1.67;;;29.10;88.80;;;;;;4161584;28;20056;-62
2023/07/24 09:41:07;;;;;;;3.33;1.98;;;29.10;88.80;;;;;;4163047;28;20041;-61
2023/07/24 09:43:25;;;;;;;1.77;1.60;;;29.20;88.30;;;;;;4160972;28;20080;-62
2023/07/24 09:45:27;;;;;;;2.40;2.20;;;29.10;87.70;;;;;;4162529;28;20045;-61
2023/07/24 09:47:28;;;;;;;2.38;1.92;;;29.00;88.20;;;;;;4161431;28;20059;-60
2023/07/24 09:49:29;;;;;;;49.20;20.20;;;29.30;88.60;;;;;;4162525;28;20041;-62
2023/07/24 09:51:31;;;;;;;143.27;56.67;;;29.40;87.80;;;;;;4161272;28;20034;-61
2023/07/24 09:54:21;;;;;;;5.93;2.40;;;29.60;87.50;;;;;;4162560;28;20029;-61
2023/07/24 09:56:23;;;;;;;7.03;3.28;;;29.70;85.20;;;;;;4147984;28;20095;-61
2023/07/24 09:58:25;;;;;;;27.95;10.50;;;29.80;87.00;;;;;;4162578;28;20029;-60
2023/07/24 10:00:27;;;;;;;9.45;4.10;;;29.90;86.40;;;;;;4161382;28;20529;-64
2023/07/24 10:02:29;;;;;;;2.20;2.00;;;30.00;86.00;;;;;;4161962;28;20037;-61
2023/07/24 10:04:33;;;;;;;2.75;2.25;;;29.70;85.50;;;;;;4159771;28;20029;-61
2023/07/24 10:06:34;;;;;;;2.83;1.92;;;29.70;85.80;;;;;;4161794;28;20049;-63
2023/07/24 10:08:36;;;;;;;1.88;1.73;;;29.90;85.80;;;;;;4161284;28;20025;-61
2023/07/24 10:10:38;;;;;;;3.85;1.80;;;29.90;84.40;;;;;;4162011;28;20221;-60
2023/07/24 10:12:40;;;;;;;2.15;1.60;;;29.90;84.30;;;;;;4161716;28;20096;-59
2023/07/24 10:14:41;;;;;;;2.58;1.90;;;30.00;84.10;;;;;;4161289;28;20045;-59
2023/07/24 10:16:42;;;;;;;2.38;2.17;;;29.90;83.40;;;;;;4161828;28;20030;-60
2023/07/24 10:18:45;;;;;;;2.15;1.90;;;29.80;83.00;;;;;;4160548;28;20111;-60
2023/07/24 10:20:46;;;;;;;4.30;1.90;;;29.80;83.20;;;;;;4160289;28;20522;-58
2023/07/24 10:22:48;;;;;;;2.97;1.95;;;29.80;82.70;;;;;;4160941;28;20095;-60
2023/07/24 10:24:49;;;;;;;3.85;1.95;;;29.60;82.50;;;;;;4161985;28;20053;-61
2023/07/24 10:26:55;;;;;;;5.07;2.42;;;29.40;82.60;;;;;;4160002;28;20045;-63
2023/07/24 10:28:57;;;;;;;2.20;2.00;;;29.40;83.10;;;;;;4161969;28;20140;-59
2023/07/24 10:31:00;;;;;;;2.22;2.03;;;29.60;83.20;;;;;;4160215;28;20468;-61
2023/07/24 10:33:18;;;;;;;3.17;2.22;;;29.50;82.80;;;;;;4161883;28;20037;-60